Time;durP1;ratioP1;P1;durP2;ratioP2;P2;SDS_P1;SDS_P2;PMS_P1;PMS_P2;Temp;Humidity;BMP_temperature;BMP_pressure;BME280_temperature;BME280_humidity;BME280_pressure;Samples;Min_cycle;Max_cycle;Signal;HPM_P1;HPM_P2
2022/03/13 00:02:19;;;;;;;6.95;6.18;;;;;;;10.39;62.44;101528.22;5075322;28;20067;-35
2022/03/13 00:04:49;;;;;;;6.70;6.00;;;;;;;10.34;61.78;101506.41;5075179;28;20032;-35
2022/03/13 00:07:21;;;;;;;7.30;5.90;;;;;;;10.41;62.32;101528.84;5075151;28;20403;-35
2022/03/13 00:09:51;;;;;;;6.18;5.53;;;;;;;10.40;62.52;101524.50;5074124;28;20029;-35
2022/03/13 00:12:18;;;;;;;7.47;5.97;;;;;;;10.31;62.71;101517.66;5074802;28;20074;-35
2022/03/13 00:14:44;;;;;;;6.70;5.47;;;;;;;10.39;62.45;101517.41;5075014;28;20361;-35
2022/03/13 00:17:16;;;;;;;8.02;6.05;;;;;;;10.38;62.82;101529.25;5073923;28;20033;-36
2022/03/13 00:19:42;;;;;;;7.00;5.55;;;;;;;10.36;62.29;101528.66;5074371;28;20035;-35
2022/03/13 00:22:09;;;;;;;7.13;6.13;;;;;;;10.27;62.46;101508.31;5074186;28;20029;-35
2022/03/13 00:24:35;;;;;;;7.82;6.10;;;;;;;10.31;63.00;101515.78;5074617;28;20369;-35
2022/03/13 00:27:02;;;;;;;7.88;5.88;;;;;;;10.22;63.72;101498.09;5074066;28;20035;-35
2022/03/13 00:29:28;;;;;;;6.22;5.63;;;;;;;10.16;63.56;101498.97;5074025;28;20032;-36
2022/03/13 00:31:53;;;;;;;7.60;5.97;;;;;;;10.30;63.20;101524.13;5074097;28;20035;-36
2022/03/13 00:34:19;;;;;;;7.20;5.63;;;;;;;10.27;64.39;101516.41;5074471;28;20032;-35
2022/03/13 00:36:44;;;;;;;8.35;5.85;;;;;;;10.28;64.26;101520.78;5073944;28;20485;-35
2022/03/13 00:39:10;;;;;;;7.03;5.83;;;;;;;10.19;63.89;101508.50;5073758;28;20024;-35
2022/03/13 00:41:36;;;;;;;6.97;5.70;;;;;;;10.27;63.92;101513.72;5073819;28;20039;-35
2022/03/13 00:44:02;;;;;;;7.57;6.60;;;;;;;10.25;62.67;101503.13;5073791;28;20515;-35
2022/03/13 00:46:28;;;;;;;6.90;6.00;;;;;;;10.24;62.98;101498.75;5074017;28;20032;-35
2022/03/13 00:48:53;;;;;;;7.28;6.22;;;;;;;10.25;63.72;101488.78;5073352;28;20071;-35
2022/03/13 00:51:19;;;;;;;6.70;5.93;;;;;;;10.20;63.82;101475.88;5073614;28;20131;-35
2022/03/13 00:53:44;;;;;;;7.93;6.05;;;;;;;10.09;63.31;101468.41;5074054;28;20028;-35
2022/03/13 00:56:10;;;;;;;6.57;5.93;;;;;;;10.14;63.77;101470.47;5072143;28;20056;-35
2022/03/13 00:58:38;;;;;;;6.13;5.53;;;;;;;10.22;62.99;101489.16;5073749;28;20036;-35
2022/03/13 01:01:04;;;;;;;7.32;5.65;;;;;;;10.17;63.44;101487.09;5073103;28;20035;-35
2022/03/13 01:03:35;;;;;;;7.95;5.72;;;;;;;10.18;63.53;101493.34;5073631;28;20056;-35
2022/03/13 01:06:01;;;;;;;7.90;5.70;;;;;;;10.11;63.79;101476.31;5072875;28;20385;-35
2022/03/13 01:08:27;;;;;;;10.13;6.40;;;;;;;10.09;63.74;101476.50;5073449;28;20041;-35
2022/03/13 01:10:53;;;;;;;7.53;6.32;;;;;;;9.96;64.43;101463.88;5072720;28;20033;-35
2022/03/13 01:13:20;;;;;;;9.68;6.32;;;;;;;10.02;64.09;101486.53;5072825;28;20040;-34
2022/03/13 01:15:49;;;;;;;7.07;6.35;;;;;;;10.01;64.28;101474.06;5073378;28;20028;-34
2022/03/13 01:18:15;;;;;;;7.28;6.40;;;;;;;9.97;63.98;101470.94;5072993;28;20495;-34
2022/03/13 01:20:41;;;;;;;7.15;6.30;;;;;;;9.95;64.29;101472.19;5073339;28;20028;-35
2022/03/13 01:23:11;;;;;;;6.78;6.00;;;;;;;9.89;63.94;101456.81;5073023;28;20024;-34
2022/03/13 01:25:37;;;;;;;6.72;6.03;;;;;;;9.91;64.55;101462.88;5073303;28;20020;-35
2022/03/13 01:28:02;;;;;;;8.00;6.90;;;;;;;9.80;64.68;101458.91;5073152;28;20358;-34
2022/03/13 01:30:28;;;;;;;7.63;6.55;;;;;;;9.77;64.95;101459.34;5073232;28;20025;-34
2022/03/13 01:32:54;;;;;;;8.40;6.37;;;;;;;9.73;65.23;101448.13;5072930;28;20036;-34
2022/03/13 01:35:22;;;;;;;7.28;6.47;;;;;;;9.65;65.66;101442.13;5073051;28;20107;-34
2022/03/13 01:37:48;;;;;;;6.57;5.85;;;;;;;9.72;65.69;101445.66;5072892;28;20029;-34
2022/03/13 01:40:17;;;;;;;;;;;;;;;9.77;65.10;101440.44;5073678;28;20139;-34
2022/03/13 01:42:44;;;;;;;10.27;6.57;;;;;;;9.61;65.12;101439.00;5072054;28;19919;-35
2022/03/13 01:45:15;;;;;;;6.57;5.85;;;;;;;9.64;66.14;101445.88;5073407;28;20049;-35
2022/03/13 01:47:40;;;;;;;7.30;6.28;;;;;;;9.57;66.24;101447.75;5073150;28;20168;-35
2022/03/13 01:50:09;;;;;;;7.68;6.22;;;;;;;9.58;65.79;101430.50;5073158;28;20109;-35
2022/03/13 01:52:35;;;;;;;7.32;5.80;;;;;;;9.49;66.14;101435.28;5072751;28;20021;-35
2022/03/13 01:55:00;;;;;;;6.95;6.25;;;;;;;9.51;66.42;101422.41;5072955;28;20029;-35
2022/03/13 01:57:26;;;;;;;7.47;5.97;;;;;;;9.40;66.68;101428.44;5072641;28;20047;-35
2022/03/13 02:00:01;;;;;;;6.55;5.63;;;;;;;9.33;67.35;101411.44;5073029;28;20031;-35
2022/03/13 02:02:32;;;;;;;6.47;5.70;;;;;;;9.38;67.14;101422.44;5073542;28;20025;-35
2022/03/13 02:04:57;;;;;;;8.20;6.05;;;;;;;9.28;67.36;101412.06;5072533;28;20035;-35
2022/03/13 02:07:25;;;;;;;6.53;5.30;;;;;;;9.33;67.54;101424.94;5072694;28;20373;-35
2022/03/13 02:09:51;;;;;;;7.78;6.30;;;;;;;9.31;67.18;101421.59;5073113;28;20432;-35
2022/03/13 02:12:20;;;;;;;6.78;5.75;;;;;;;9.24;67.93;101416.22;5072578;28;20052;-35
2022/03/13 02:14:47;;;;;;;7.05;5.75;;;;;;;9.22;67.87;101418.28;5072286;28;20103;-35
2022/03/13 02:17:12;;;;;;;6.82;5.55;;;;;;;9.26;67.98;101408.72;5073705;28;20388;-35
2022/03/13 02:19:38;;;;;;;6.23;5.63;;;;;;;9.21;68.28;101412.03;5076512;28;20028;-35
2022/03/13 02:22:04;;;;;;;6.47;5.23;;;;;;;9.21;68.22;101417.44;5076266;28;20036;-35
2022/03/13 02:24:29;;;;;;;5.70;5.10;;;;;;;9.19;68.81;101410.59;5076882;28;20025;-35
2022/03/13 02:27:02;;;;;;;6.53;5.33;;;;;;;9.13;68.92;101397.94;5076452;28;20362;-35
2022/03/13 02:29:29;;;;;;;5.88;5.15;;;;;;;9.18;68.88;101417.03;5076374;28;20534;-35
2022/03/13 02:31:55;;;;;;;7.05;5.40;;;;;;;9.16;68.75;101413.72;5076832;28;20024;-35
2022/03/13 02:34:21;;;;;;;5.72;5.18;;;;;;;8.99;68.50;101387.16;5076575;28;20082;-35
2022/03/13 02:36:50;;;;;;;6.55;5.35;;;;;;;9.10;69.59;101417.25;5077068;28;20399;-35
2022/03/13 02:39:16;;;;;;;6.75;5.93;;;;;;;9.13;70.06;101420.38;5076138;28;20055;-35
2022/03/13 02:41:42;;;;;;;6.32;5.55;;;;;;;9.11;69.73;101419.72;5076240;28;20528;-35
2022/03/13 02:44:08;;;;;;;5.75;5.15;;;;;;;9.08;69.11;101416.59;5076051;28;20044;-35
2022/03/13 02:46:46;;;;;;;7.03;5.15;;;;;;;9.08;68.97;101424.69;5076172;28;20032;-35
2022/03/13 02:49:17;;;;;;;6.68;5.35;;;;;;;8.95;69.29;101388.59;5076128;28;20459;-35
2022/03/13 02:51:43;;;;;;;7.78;5.38;;;;;;;9.09;69.36;101412.91;5076303;28;20033;-35
2022/03/13 02:54:09;;;;;;;6.47;5.68;;;;;;;9.04;69.46;101397.31;5076466;28;20097;-35
2022/03/13 02:56:34;;;;;;;7.30;5.70;;;;;;;9.06;69.25;101399.81;5076276;28;20024;-35
2022/03/13 02:59:00;;;;;;;6.77;5.63;;;;;;;9.10;68.94;101404.59;5075781;28;20797;-35
2022/03/13 03:01:25;;;;;;;7.50;6.40;;;;;;;8.98;69.90;101390.91;5076325;28;20456;-35
2022/03/13 03:03:57;;;;;;;6.85;5.85;;;;;;;9.07;69.56;101407.69;5075801;28;20471;-35
2022/03/13 03:06:24;;;;;;;7.47;5.78;;;;;;;8.99;69.33;101391.72;5075429;28;20029;-35
2022/03/13 03:08:51;;;;;;;7.20;6.00;;;;;;;9.05;69.89;101400.84;5076637;28;20028;-35
2022/03/13 03:11:16;;;;;;;7.90;6.85;;;;;;;9.10;69.04;101395.66;5075682;28;20037;-35
2022/03/13 03:13:42;;;;;;;7.65;6.85;;;;;;;9.00;69.17;101391.50;5075509;28;20025;-35
2022/03/13 03:16:07;;;;;;;8.13;6.73;;;;;;;9.02;69.87;101397.50;5075071;28;20028;-35
2022/03/13 03:18:33;;;;;;;8.43;7.32;;;;;;;8.95;69.49;101380.50;5075913;28;20032;-35
2022/03/13 03:20:58;;;;;;;8.33;6.90;;;;;;;9.03;69.42;101395.66;5075735;28;20032;-35
2022/03/13 03:23:23;;;;;;;8.27;7.47;;;;;;;8.94;69.75;101386.13;5074399;28;20024;-35
2022/03/13 03:25:49;;;;;;;8.17;6.87;;;;;;;8.98;70.38;101382.81;5075695;28;20029;-35
2022/03/13 03:28:17;;;;;;;8.97;7.07;;;;;;;8.86;71.04;101376.34;5074728;28;20028;-35
2022/03/13 03:30:43;;;;;;;9.07;7.55;;;;;;;8.93;71.12;101387.13;5075484;28;20111;-36
2022/03/13 03:33:08;;;;;;;8.57;7.32;;;;;;;8.93;71.80;101393.38;5075694;28;20178;-35
2022/03/13 03:35:34;;;;;;;9.10;8.13;;;;;;;8.93;71.60;101395.22;5075509;28;20066;-35
2022/03/13 03:38:00;;;;;;;;;;;;;;;8.99;71.00;101387.16;5075551;28;20055;-35
2022/03/13 03:40:28;;;;;;;11.02;7.72;;;;;;;8.89;72.38;101384.03;5074988;28;20356;-35
2022/03/13 03:42:55;;;;;;;9.93;7.80;;;;;;;8.84;72.08;101383.84;5074883;28;20173;-35
2022/03/13 03:45:20;;;;;;;10.77;8.82;;;;;;;8.79;72.99;101382.78;5075937;28;20087;-36
2022/03/13 03:47:46;;;;;;;10.47;8.47;;;;;;;8.82;73.06;101390.44;5075014;28;20031;-35
2022/03/13 03:50:12;;;;;;;9.95;8.95;;;;;;;8.79;73.09;101380.91;5075515;28;20025;-35
2022/03/13 03:52:37;;;;;;;10.10;9.10;;;;;;;8.81;72.95;101391.50;5075447;28;20029;-35
2022/03/13 03:55:03;;;;;;;9.77;8.70;;;;;;;8.76;73.12;101381.31;5074888;28;20398;-35
2022/03/13 03:57:29;;;;;;;11.00;8.85;;;;;;;8.75;73.29;101379.66;5074776;28;20031;-36
2022/03/13 03:59:54;;;;;;;10.57;8.47;;;;;;;8.76;73.50;101381.31;5075289;28;20028;-35
2022/03/13 04:02:20;;;;;;;10.77;9.67;;;;;;;8.72;73.08;101391.69;5073473;28;20094;-35
2022/03/13 04:04:46;;;;;;;10.75;8.93;;;;;;;8.71;74.11;101394.59;5074753;28;20032;-35
2022/03/13 04:07:13;;;;;;;10.10;9.05;;;;;;;8.73;74.43;101392.50;5075219;28;20082;-35
2022/03/13 04:09:38;;;;;;;12.45;8.70;;;;;;;8.71;73.89;101383.81;5074911;28;20060;-35
2022/03/13 04:12:07;;;;;;;11.63;10.43;;;;;;;8.69;73.79;101373.25;5073311;28;20064;-35
2022/03/13 04:14:36;;;;;;;11.55;9.23;;;;;;;8.71;73.98;101367.63;5074587;28;20135;-35
2022/03/13 04:17:02;;;;;;;12.15;9.30;;;;;;;8.74;73.92;101378.00;5075127;28;20115;-35
2022/03/13 04:19:28;;;;;;;10.13;9.13;;;;;;;8.72;73.63;101371.97;5074365;28;20111;-35
2022/03/13 04:21:54;;;;;;;11.18;10.07;;;;;;;8.69;73.89;101361.63;5074280;28;20038;-35
2022/03/13 04:24:21;;;;;;;10.52;9.45;;;;;;;8.76;74.19;101375.94;5074529;28;20024;-35
2022/03/13 04:26:48;;;;;;;10.55;9.45;;;;;;;8.75;73.78;101379.66;5074547;28;20036;-35
2022/03/13 04:29:16;;;;;;;12.40;10.57;;;;;;;8.75;73.65;101368.88;5074491;28;20043;-35
2022/03/13 04:31:42;;;;;;;12.50;11.05;;;;;;;8.72;74.19;101374.69;5074523;28;20036;-35
2022/03/13 04:34:07;;;;;;;;;;;;;;;8.80;72.58;101371.78;5074305;28;20108;-35
2022/03/13 04:36:33;;;;;;;14.70;12.33;;;;;;;8.71;72.95;101375.72;5074111;28;19955;-35
2022/03/13 04:39:02;;;;;;;14.30;12.95;;;;;;;8.71;73.04;101376.53;5073576;28;20071;-35
2022/03/13 04:41:28;;;;;;;15.18;13.57;;;;;;;8.70;72.53;101382.16;5074163;28;20024;-35
2022/03/13 04:43:54;;;;;;;;;;;;;;;8.77;72.11;101377.59;5074234;28;20056;-35
2022/03/13 04:46:20;;;;;;;14.35;12.85;;;;;;;8.67;73.71;101380.69;5073790;28;19939;-35
2022/03/13 04:48:45;;;;;;;14.40;12.18;;;;;;;8.64;73.31;101382.97;5073354;28;20055;-35
2022/03/13 04:51:11;;;;;;;14.45;12.85;;;;;;;8.58;74.33;101389.16;5073801;28;20042;-35
2022/03/13 04:53:37;;;;;;;13.80;11.88;;;;;;;8.44;74.13;101375.69;5073640;28;20048;-35
2022/03/13 04:56:03;;;;;;;12.00;10.75;;;;;;;8.54;75.06;101385.22;5073586;28;20106;-35
2022/03/13 04:58:28;;;;;;;13.65;11.82;;;;;;;8.36;75.95;101377.69;5073944;28;20464;-35
2022/03/13 05:00:54;;;;;;;12.53;11.33;;;;;;;8.41;74.96;101386.88;5073589;28;20051;-35
2022/03/13 05:03:20;;;;;;;15.30;11.57;;;;;;;8.36;75.15;101380.38;5073160;28;20366;-35
2022/03/13 05:05:45;;;;;;;13.82;11.05;;;;;;;8.28;76.75;101378.69;5073944;28;20291;-35
2022/03/13 05:08:13;;;;;;;12.43;10.98;;;;;;;8.28;77.33;101384.09;5073450;28;20111;-35
2022/03/13 05:10:40;;;;;;;13.20;11.80;;;;;;;8.19;76.42;101369.13;5073280;28;20104;-35
2022/03/13 05:13:07;;;;;;;11.52;10.35;;;;;;;8.20;76.91;101365.44;5071953;28;20384;-35
2022/03/13 05:15:34;;;;;;;11.57;10.38;;;;;;;8.15;76.45;101352.56;5073480;28;20086;-35
2022/03/13 05:18:00;;;;;;;13.30;11.38;;;;;;;8.15;76.94;101362.47;5073159;28;20024;-35
2022/03/13 05:20:26;;;;;;;13.65;11.23;;;;;;;8.13;76.61;101364.56;5073246;28;20020;-35
2022/03/13 05:22:52;;;;;;;11.63;10.45;;;;;;;8.04;76.39;101345.03;5073211;28;20086;-35
2022/03/13 05:25:17;;;;;;;11.82;10.63;;;;;;;8.11;75.87;101354.00;5073367;28;20024;-35
2022/03/13 05:27:43;;;;;;;12.77;11.10;;;;;;;8.07;75.88;101365.38;5073118;28;20035;-35
2022/03/13 05:30:09;;;;;;;12.93;11.23;;;;;;;7.95;74.71;101351.63;5073194;28;20263;-35
2022/03/13 05:32:35;;;;;;;12.05;10.32;;;;;;;7.98;75.61;101352.06;5072746;28;20472;-35
2022/03/13 05:35:02;;;;;;;12.90;10.77;;;;;;;7.89;74.57;101347.06;5073637;28;20113;-35
2022/03/13 05:37:27;;;;;;;;;;;;;;;8.08;75.12;101361.66;5073077;28;20029;-35
2022/03/13 05:39:52;;;;;;;12.60;10.63;;;;;;;8.05;73.97;101356.66;5072669;28;19916;-35
2022/03/13 05:42:22;;;;;;;13.85;10.07;;;;;;;8.03;73.96;101358.72;5073501;28;20032;-35
2022/03/13 05:44:47;;;;;;;11.75;10.20;;;;;;;8.00;75.14;101358.09;5072764;28;20055;-35
2022/03/13 05:47:12;;;;;;;13.60;11.20;;;;;;;8.02;75.03;101370.53;5073152;28;20025;-35
2022/03/13 05:49:38;;;;;;;13.23;10.80;;;;;;;7.99;73.90;101363.69;5073017;28;20028;-35
2022/03/13 05:52:04;;;;;;;11.75;10.57;;;;;;;7.97;74.02;101366.59;5072603;28;20032;-35
2022/03/13 05:54:30;;;;;;;;;;;;;;;8.04;73.80;101363.91;5073797;28;20029;-35
2022/03/13 05:56:55;;;;;;;10.40;9.30;;;;;;;7.99;74.41;101375.28;5072850;28;19917;-35
2022/03/13 05:59:25;;;;;;;11.63;10.20;;;;;;;7.99;73.83;101377.13;5073339;28;20032;-35
2022/03/13 06:01:50;;;;;;;13.05;10.63;;;;;;;7.94;73.77;101366.97;5072723;28;20036;-35
2022/03/13 06:04:16;;;;;;;12.63;10.68;;;;;;;7.97;74.30;101374.66;5073029;28;20036;-35
2022/03/13 06:06:42;;;;;;;12.10;10.52;;;;;;;7.89;73.35;101380.22;5073357;28;20114;-35
2022/03/13 06:09:08;;;;;;;12.45;11.13;;;;;;;7.88;74.34;101373.16;5072438;28;20098;-35
2022/03/13 06:11:33;;;;;;;11.80;10.23;;;;;;;7.92;74.46;101374.44;5073021;28;20465;-35
2022/03/13 06:13:58;;;;;;;14.43;10.43;;;;;;;7.95;73.53;101381.25;5072441;28;20036;-35
2022/03/13 06:16:24;;;;;;;12.87;9.73;;;;;;;7.95;73.39;101374.03;5073057;28;20025;-35
2022/03/13 06:18:49;;;;;;;13.02;11.07;;;;;;;7.95;73.82;101370.50;5072834;28;20025;-35
2022/03/13 06:21:15;;;;;;;10.75;9.65;;;;;;;7.98;74.38;101380.88;5073414;28;20028;-35
2022/03/13 06:23:40;;;;;;;13.63;9.93;;;;;;;7.98;74.49;101381.69;5072406;28;20484;-35
2022/03/13 06:26:06;;;;;;;9.40;8.43;;;;;;;7.99;73.99;101375.28;5072061;28;20525;-35
2022/03/13 06:28:34;;;;;;;13.10;9.63;;;;;;;7.97;73.76;101380.06;5072487;28;20050;-34
2022/03/13 06:31:00;;;;;;;13.88;10.52;;;;;;;7.95;73.42;101383.97;5072491;28;20115;-35
2022/03/13 06:33:27;;;;;;;13.35;11.00;;;;;;;7.88;73.59;101373.16;5072432;28;20071;-35
2022/03/13 06:35:52;;;;;;;14.02;10.60;;;;;;;7.92;73.14;101379.81;5073243;28;20074;-35
2022/03/13 06:38:17;;;;;;;10.90;9.80;;;;;;;7.88;73.44;101381.25;5072037;28;20526;-35
2022/03/13 06:40:43;;;;;;;10.50;9.40;;;;;;;7.88;73.71;101381.25;5073230;28;20111;-35
2022/03/13 06:43:08;;;;;;;11.37;9.60;;;;;;;7.91;73.77;101380.03;5071450;28;20029;-35
2022/03/13 06:45:34;;;;;;;13.40;10.20;;;;;;;7.87;73.31;101376.06;5072300;28;20616;-35
2022/03/13 06:47:59;;;;;;;12.00;10.23;;;;;;;7.92;73.35;101379.81;5072019;28;20035;-35
2022/03/13 06:50:24;;;;;;;12.27;10.13;;;;;;;7.91;73.62;101380.84;5072323;28;20033;-35
2022/03/13 06:52:53;;;;;;;11.10;10.00;;;;;;;7.90;73.17;101383.72;5071230;28;20118;-35
2022/03/13 06:55:18;;;;;;;11.50;10.27;;;;;;;7.84;72.85;101366.50;5072376;28;20050;-35
2022/03/13 06:57:44;;;;;;;13.15;9.95;;;;;;;7.90;72.67;101381.88;5072473;28;20024;-35
2022/03/13 07:00:12;;;;;;;14.88;10.20;;;;;;;7.88;73.72;101383.94;5072063;28;20098;-35
2022/03/13 07:02:38;;;;;;;13.80;10.20;;;;;;;7.94;73.37;101377.75;5072387;28;20131;-35
2022/03/13 07:05:04;;;;;;;11.35;10.15;;;;;;;7.89;73.20;101382.91;5075253;28;20068;-35
2022/03/13 07:07:29;;;;;;;11.95;9.55;;;;;;;7.88;73.38;101373.16;5075391;28;20032;-35
2022/03/13 07:09:57;;;;;;;11.17;9.90;;;;;;;7.98;73.44;101381.69;5076219;28;20040;-35
2022/03/13 07:12:23;;;;;;;11.50;10.30;;;;;;;7.99;73.17;101375.28;5075620;28;20028;-35
2022/03/13 07:14:48;;;;;;;14.20;10.13;;;;;;;8.06;73.92;101385.28;5075506;28;20035;-35
2022/03/13 07:17:15;;;;;;;11.90;9.87;;;;;;;8.12;72.82;101381.75;5075547;28;20029;-35
2022/03/13 07:19:43;;;;;;;12.50;10.32;;;;;;;8.15;73.20;101378.66;5075406;28;20020;-35
2022/03/13 07:22:10;;;;;;;11.10;9.15;;;;;;;8.21;72.68;101375.16;5075029;28;20469;-35
2022/03/13 07:24:35;;;;;;;12.48;10.23;;;;;;;8.23;72.17;101375.78;5075656;28;20024;-35
2022/03/13 07:27:01;;;;;;;13.97;9.50;;;;;;;8.28;72.11;101373.31;5075236;28;20032;-35
2022/03/13 07:29:26;;;;;;;12.15;9.80;;;;;;;8.30;71.84;101386.59;5075738;28;20294;-35
2022/03/13 07:31:52;;;;;;;13.93;10.30;;;;;;;8.26;72.97;101380.78;5075967;28;20060;-35
2022/03/13 07:34:17;;;;;;;10.05;9.00;;;;;;;8.32;72.17;101379.97;5075219;28;20028;-35
2022/03/13 07:36:43;;;;;;;11.47;8.97;;;;;;;8.37;72.08;101377.50;5074276;28;20043;-35
2022/03/13 07:39:08;;;;;;;12.03;9.63;;;;;;;8.06;72.47;101336.78;5075057;28;20766;-35
2022/03/13 07:41:33;;;;;;;11.07;9.93;;;;;;;8.39;73.05;101380.81;5075681;28;20028;-36
2022/03/13 07:44:00;;;;;;;11.23;9.77;;;;;;;8.42;73.29;101379.59;5075095;28;20040;-35
2022/03/13 07:46:26;;;;;;;10.90;9.77;;;;;;;8.33;72.15;101362.75;5074696;28;20021;-35
2022/03/13 07:48:51;;;;;;;12.27;9.80;;;;;;;8.46;73.14;101375.47;5074566;28;20035;-35
2022/03/13 07:51:17;;;;;;;11.73;10.53;;;;;;;8.49;73.00;101370.50;5075207;28;20039;-35
2022/03/13 07:53:43;;;;;;;;;;;;;;;8.58;72.42;101368.44;5074907;28;20024;-35
2022/03/13 07:56:08;;;;;;;14.32;10.02;;;;;;;8.53;71.81;101354.75;5074894;28;19919;-35
2022/03/13 07:58:34;;;;;;;11.20;9.97;;;;;;;8.56;72.35;101375.06;5074935;28;20438;-35
2022/03/13 08:00:59;;;;;;;11.55;10.30;;;;;;;8.49;72.25;101357.03;5074761;28;20056;-35
2022/03/13 08:03:29;;;;;;;13.53;10.17;;;;;;;8.62;72.18;101371.56;5074905;28;20025;-35
2022/03/13 08:05:55;;;;;;;13.23;9.25;;;;;;;8.62;71.15;101371.56;5074551;28;20488;-35
2022/03/13 08:08:21;;;;;;;11.57;9.75;;;;;;;8.67;71.67;101374.47;5074273;28;20033;-35
2022/03/13 08:10:46;;;;;;;10.80;9.70;;;;;;;8.66;72.01;101375.50;5073639;28;20024;-35
2022/03/13 08:13:11;;;;;;;11.73;10.17;;;;;;;8.68;71.47;101374.25;5074392;28;20025;-35
2022/03/13 08:15:38;;;;;;;11.03;9.77;;;;;;;8.71;71.89;101370.31;5074243;28;20154;-35
2022/03/13 08:18:03;;;;;;;11.35;10.15;;;;;;;8.70;71.37;101371.38;5074229;28;20033;-35
2022/03/13 08:20:29;;;;;;;14.23;10.55;;;;;;;8.73;71.92;101373.63;5074690;28;20035;-35
2022/03/13 08:22:54;;;;;;;13.13;10.63;;;;;;;8.74;70.51;101372.63;5074447;28;20025;-35
2022/03/13 08:25:20;;;;;;;12.07;10.77;;;;;;;8.70;69.47;101371.38;5074426;28;20049;-35
2022/03/13 08:27:46;;;;;;;11.00;9.65;;;;;;;8.73;69.51;101366.38;5073087;28;20124;-36
2022/03/13 08:30:12;;;;;;;13.90;9.60;;;;;;;8.76;68.70;101368.66;5074357;28;20052;-36
2022/03/13 08:32:39;;;;;;;11.88;9.65;;;;;;;8.75;69.15;101363.50;5074302;28;20021;-36
2022/03/13 08:35:05;;;;;;;;;;;;;;;8.84;68.48;101372.22;5074347;28;20465;-35
2022/03/13 08:37:31;;;;;;;12.75;9.95;;;;;;;8.85;68.65;101366.59;5074146;28;19908;-35
2022/03/13 08:39:56;;;;;;;10.57;9.07;;;;;;;8.92;68.33;101374.69;5073960;28;20446;-35
2022/03/13 08:42:21;;;;;;;11.90;9.47;;;;;;;8.97;67.89;101378.41;5074483;28;20062;-36
2022/03/13 08:44:47;;;;;;;12.32;10.00;;;;;;;8.96;67.72;101360.59;5072947;28;20302;-35
2022/03/13 08:47:12;;;;;;;12.27;9.10;;;;;;;9.14;67.04;101368.06;5073989;28;20036;-36
2022/03/13 08:49:38;;;;;;;12.80;9.60;;;;;;;9.19;66.48;101365.56;5074693;28;20349;-35
2022/03/13 08:52:04;;;;;;;12.53;9.23;;;;;;;9.26;65.19;101377.16;5073512;28;20032;-36
2022/03/13 08:54:29;;;;;;;11.68;10.48;;;;;;;9.23;64.68;101361.41;5074355;28;20594;-35
2022/03/13 08:56:55;;;;;;;9.80;8.80;;;;;;;9.37;64.97;101364.94;5074598;28;20028;-36
2022/03/13 08:59:20;;;;;;;14.38;10.10;;;;;;;9.44;65.00;101365.72;5073756;28;20283;-35
2022/03/13 09:01:47;;;;;;;11.48;9.65;;;;;;;9.44;64.41;101356.81;5073695;28;20420;-36
2022/03/13 09:04:13;;;;;;;10.88;8.75;;;;;;;9.49;63.87;101360.53;5073913;28;20426;-35
2022/03/13 09:06:39;;;;;;;13.30;10.05;;;;;;;9.56;64.90;101357.78;5074478;28;20099;-35
2022/03/13 09:09:05;;;;;;;11.55;9.18;;;;;;;9.75;64.14;101358.78;5073523;28;20044;-36
2022/03/13 09:11:34;;;;;;;12.98;10.35;;;;;;;9.89;63.45;101360.41;5074120;28;20025;-36
2022/03/13 09:14:00;;;;;;;13.43;9.63;;;;;;;10.01;62.93;101336.25;5073370;28;20487;-36
2022/03/13 09:16:26;;;;;;;12.07;9.65;;;;;;;10.15;61.71;101345.09;5074137;28;20024;-36
2022/03/13 09:18:52;;;;;;;12.63;9.93;;;;;;;10.29;61.78;101350.25;5073504;28;20369;-36
2022/03/13 09:21:18;;;;;;;10.40;9.10;;;;;;;10.47;60.49;101346.81;5073695;28;20024;-36
2022/03/13 09:23:43;;;;;;;10.87;9.60;;;;;;;10.73;61.70;101348.50;5073325;28;20472;-36
2022/03/13 09:26:09;;;;;;;13.83;10.83;;;;;;;10.79;60.33;101344.13;5073409;28;20025;-41
2022/03/13 09:28:35;;;;;;;11.88;8.82;;;;;;;10.92;59.69;101344.00;5072579;28;20357;-36
2022/03/13 09:31:00;;;;;;;12.13;10.70;;;;;;;10.91;59.55;101333.41;5073953;28;20036;-36
2022/03/13 09:33:27;;;;;;;13.38;9.80;;;;;;;11.04;59.40;101333.28;5073144;28;20036;-36
2022/03/13 09:35:53;;;;;;;12.02;10.02;;;;;;;11.10;58.65;101329.69;5073939;28;20068;-36
2022/03/13 09:38:18;;;;;;;13.15;10.43;;;;;;;11.25;58.24;101340.16;5073039;28;20107;-36
2022/03/13 09:40:44;;;;;;;14.77;10.47;;;;;;;11.31;58.98;101326.56;5073416;28;20376;-36
2022/03/13 09:43:09;;;;;;;12.47;10.07;;;;;;;11.50;58.66;101338.22;5073350;28;20267;-36
2022/03/13 09:45:35;;;;;;;12.02;9.95;;;;;;;11.59;59.05;101334.16;5073135;28;20285;-36
2022/03/13 09:48:06;;;;;;;11.35;10.13;;;;;;;11.76;59.07;101347.09;5073081;28;20025;-36
2022/03/13 09:50:31;;;;;;;11.00;9.38;;;;;;;11.91;59.08;101336.75;5073512;28;20103;-36
2022/03/13 09:52:57;;;;;;;12.20;10.05;;;;;;;11.99;58.61;101344.56;5072930;28;20508;-36
2022/03/13 09:55:22;;;;;;;15.60;10.37;;;;;;;12.14;57.62;101340.63;5073055;28;20060;-36
2022/03/13 09:57:48;;;;;;;15.05;10.30;;;;;;;12.30;57.60;101340.00;5072583;28;20024;-36
2022/03/13 10:00:20;;;;;;;10.35;9.23;;;;;;;12.41;57.12;101339.19;5072916;28;20090;-36
2022/03/13 10:02:46;;;;;;;10.88;9.55;;;;;;;12.46;57.14;101331.19;5073436;28;20103;-36
2022/03/13 10:05:14;;;;;;;9.77;8.65;;;;;;;12.63;56.40;101334.88;5072985;28;20436;-36
2022/03/13 10:07:59;;;;;;;12.32;9.30;;;;;;;12.71;56.37;101335.63;5072798;28;20025;-36
2022/03/13 10:10:30;;;;;;;10.27;9.18;;;;;;;12.83;55.71;101334.59;5073584;28;20407;-36
2022/03/13 10:12:56;;;;;;;10.18;8.70;;;;;;;12.86;54.68;101327.84;5073583;28;20354;-36
2022/03/13 10:15:21;;;;;;;;;;;;;;;12.97;54.87;101329.75;5073264;28;20036;-36
2022/03/13 10:17:48;;;;;;;9.93;8.77;;;;;;;12.91;55.10;101325.25;5071062;28;19919;-36
2022/03/13 10:20:25;;;;;;;9.30;7.90;;;;;;;12.86;55.73;101311.56;5072815;28;20033;-36
2022/03/13 10:23:11;;;;;;;10.18;9.18;;;;;;;12.90;55.08;101318.19;5072756;28;20066;-36
2022/03/13 10:25:41;;;;;;;10.23;8.70;;;;;;;12.98;56.10;101308.84;5072595;28;20040;-35
2022/03/13 10:28:31;;;;;;;10.27;8.65;;;;;;;13.05;55.38;101309.56;5072284;28;20020;-35
2022/03/13 10:30:59;;;;;;;10.10;8.13;;;;;;;13.20;55.70;101314.53;5073310;28;20341;-35
2022/03/13 10:33:26;;;;;;;11.00;8.55;;;;;;;13.15;53.65;101291.63;5072698;28;20024;-35
2022/03/13 10:36:10;;;;;;;10.85;8.82;;;;;;;13.31;54.40;101292.00;5072676;28;20032;-36
2022/03/13 10:38:36;;;;;;;9.75;8.52;;;;;;;13.59;54.49;101299.38;5074120;28;20024;-36
2022/03/13 10:41:08;;;;;;;10.40;9.32;;;;;;;13.70;53.82;101295.81;5076323;28;20036;-36
2022/03/13 10:43:39;;;;;;;9.60;8.60;;;;;;;13.81;53.36;101283.25;5076304;28;20103;-36
2022/03/13 10:46:05;;;;;;;9.80;8.80;;;;;;;13.89;52.45;101288.31;5075988;28;20115;-36
2022/03/13 10:48:33;;;;;;;8.98;8.07;;;;;;;13.98;53.49;101281.41;5076066;28;20028;-36
2022/03/13 10:51:01;;;;;;;10.32;8.57;;;;;;;13.99;53.94;101284.97;5076105;28;20025;-36
2022/03/13 10:53:28;;;;;;;9.55;8.40;;;;;;;14.11;52.06;101285.75;5075962;28;20372;-35
2022/03/13 10:55:59;;;;;;;9.32;8.20;;;;;;;13.88;51.95;101279.31;5076286;28;20033;-35
2022/03/13 10:58:32;;;;;;;9.52;7.97;;;;;;;14.10;52.84;101286.78;5075944;28;20035;-36
2022/03/13 11:01:04;;;;;;;7.93;7.13;;;;;;;14.13;51.61;101284.41;5076018;28;20401;-35
2022/03/13 11:03:31;;;;;;;8.63;7.72;;;;;;;14.15;51.15;101282.28;5075853;28;20029;-36
2022/03/13 11:05:56;;;;;;;8.25;6.85;;;;;;;14.14;51.83;101280.63;5076465;28;20099;-36
2022/03/13 11:08:21;;;;;;;9.50;7.90;;;;;;;14.29;52.76;101277.34;5075856;28;20081;-35
2022/03/13 11:10:48;;;;;;;8.00;7.20;;;;;;;14.39;52.38;101271.25;5076316;28;20028;-36
2022/03/13 11:13:15;;;;;;;8.77;6.72;;;;;;;14.42;50.74;101278.94;5075930;28;20484;-35
2022/03/13 11:15:44;;;;;;;9.63;6.55;;;;;;;14.52;51.32;101275.59;5075768;28;20099;-36
2022/03/13 11:18:10;;;;;;;9.40;7.55;;;;;;;14.57;52.13;101262.91;5076275;28;20036;-36
2022/03/13 11:20:38;;;;;;;;;;;;;;;14.83;52.59;101271.47;5076127;28;20089;-36
2022/03/13 11:23:04;;;;;;;8.13;7.13;;;;;;;14.81;50.77;101269.00;5075975;28;19908;-36
2022/03/13 11:25:29;;;;;;;7.53;6.63;;;;;;;14.93;50.28;101266.16;5076124;28;20372;-36